Terminal Aerodrome Forecast
Issued by NWS

Home | Current Version | Previous Version | Text Only | Print | Product List | Glossary On
Versions: 1 2 3 4 5 6 7 8 9 10 11 12
000
FTUS43 KICT 220500
TAFSLN
TAF
KSLN 220522Z 2206/2306 16012KT P6SM VCTS BKN110CB
     FM220900 VRB04KT P6SM VCTS OVC100CB
     FM221500 18015G22KT P6SM BKN120
     FM230100 17011KT P6SM SCT120=

USA.gov is the U.S. government's official web portal to all federal, state and local government web resources and services.